Ana Sayfa
METAR-TAF:

METAR-TAF

Havaalanları :

Torreón, Meksika

Enlem: 25-32N, Boylam: 103-27W, yükseklik: 1124 m

Güncel hava durumu gözlemi

Rapor saat 23:48 UTC de 23 dakika önce yapıldı.
Rüzgar kuzeydan 6 kt
Sıcaklık 24°C
Nem 27%
Basınç 1018 hPa
Görüş mesafesi: 24.1 km
Açık gökyüzü

METAR: MMTC 262348Z 36006KT 15SM SKC 24/04 A3005 RMK SLP118 56013 967 SC SW

Saat: 18:11 (00:11 UTC)

Tahmin

Rapor saat 17:20 UTC de 6 saat ve 51 dakika önce yapıldı.
Ayın 26'si saat 18 UTC'den ayın 27'si saat 18 UTC'ye kadar geçerli Tahmin
Rüzgar kuzey/kuzeydoğudan 15 kt
Görüş mesafesi: 10 km
Açık gökyüzü
Dönüşüyor
ayın 27'si saat 02 UTC'den ayın 27'si saat 03 UTC'ye kadar
Rüzgar kuzeydan kt
Ayın 27'si saat 1500 UTC'den
Rüzgar güneydoğudan 10 kt
Görüş mesafesi: 10 km
Açık gökyüzü

TAF: MMTC 261720Z 2618/2718 03015KT P6SM SKC BECMG 2702/2703 00000KT FM271500 14010KT P6SM SKC

4.000'den fazla havaalanı için hava durumu gözlemleri ve tahminleri (METAR ve TAF raporları).

Kullanılabilir istasyonlar harita üzerinde sarı ve kırmızı noktalarla gösterilir.

İstasyonun adını görmek için fareyi noktanın üzerinde gezdirin.

Sonrasında hava gözlem ve tahminlerini görmek için tıklayın.

Haritayı değiştirmek için: yaklaştırmak için siyah artı işaretli yeşil düğmeye ve uzaklaştırmak için de eksi işaretli düğmeye hızla tıklayın; bitişik haritalar için yeşil okları kullanın.


METAR-TAF: